Time;durP1;ratioP1;P1;durP2;ratioP2;P2;SDS_P1;SDS_P2;PMS_P1;PMS_P2;Temp;Humidity;BMP_temperature;BMP_pressure;BME280_temperature;BME280_humidity;BME280_pressure;Samples;Min_cycle;Max_cycle;Signal;HPM_P1;HPM_P2
2022/09/08 00:03:57;;;;;;;9.60;4.82;;;;;;;;;;8267002;28;20054;-85
2022/09/08 00:08:00;;;;;;;10.18;4.70;;;;;;;;;;8267499;28;20504;-85
2022/09/08 00:12:04;;;;;;;11.98;5.25;;;;;;;;;;8266642;28;20081;-84
2022/09/08 00:16:10;;;;;;;12.82;5.30;;;;;;;;;;8267016;28;20050;-85
2022/09/08 00:20:13;;;;;;;14.27;5.28;;;;;;;;;;8266799;28;20046;-85
2022/09/08 00:24:16;;;;;;;11.52;5.05;;;;;;;;;;8266649;28;20125;-84
2022/09/08 00:28:18;;;;;;;10.48;4.38;;;;;;;;;;8266338;28;20105;-84
2022/09/08 00:32:22;;;;;;;9.93;5.05;;;;;;;;;;8266738;28;20414;-85
2022/09/08 00:36:25;;;;;;;9.63;4.65;;;;;;;;;;8266766;28;20525;-85
2022/09/08 00:40:29;;;;;;;9.68;4.80;;;;;;;;;;8266170;28;20054;-85
2022/09/08 00:44:44;;;;;;;12.85;5.00;;;;;;;;;;8265774;28;20050;-85
2022/09/08 00:48:54;;;;;;;10.65;4.55;;;;;;;;;;8266031;28;20089;-85
2022/09/08 00:53:00;;;;;;;10.15;4.72;;;;;;;;;;8265684;28;20101;-85
2022/09/08 00:57:04;;;;;;;10.07;4.60;;;;;;;;;;8265639;28;20052;-85
2022/09/08 01:01:07;;;;;;;9.55;5.15;;;;;;;;;;8265471;28;20050;-85
2022/09/08 01:05:13;;;;;;;10.90;4.75;;;;;;;;;;8265332;28;20054;-85
2022/09/08 01:13:40;;;;;;;15.10;4.68;;;;;;;;;;8265173;28;20046;-84
2022/09/08 01:17:43;;;;;;;8.90;4.82;;;;;;;;;;8265027;28;20054;-85
2022/09/08 01:22:03;;;;;;;13.40;5.30;;;;;;;;;;8264902;28;20053;-84
2022/09/08 01:26:31;;;;;;;10.40;4.75;;;;;;;;;;8264723;28;20046;-85
2022/09/08 01:30:36;;;;;;;11.52;4.38;;;;;;;;;;8264710;28;20046;-84
2022/09/08 01:34:40;;;;;;;11.75;4.60;;;;;;;;;;8264644;28;20038;-85
2022/09/08 01:38:43;;;;;;;11.98;4.75;;;;;;;;;;8264592;28;20046;-85
2022/09/08 01:42:46;;;;;;;11.63;4.95;;;;;;;;;;8264265;28;20133;-84
2022/09/08 01:46:50;;;;;;;11.48;4.78;;;;;;;;;;8264275;28;20046;-85
2022/09/08 01:50:52;;;;;;;11.23;4.78;;;;;;;;;;8264200;28;20442;-85
2022/09/08 01:54:55;;;;;;;9.10;5.03;;;;;;;;;;8264289;28;20042;-85
2022/09/08 01:58:58;;;;;;;11.10;4.78;;;;;;;;;;8264710;28;20454;-85
2022/09/08 02:03:01;;;;;;;10.27;4.40;;;;;;;;;;8264147;28;20054;-85
2022/09/08 02:07:04;;;;;;;13.55;4.85;;;;;;;;;;8263990;28;20482;-85
2022/09/08 02:11:06;;;;;;;16.08;7.45;;;;;;;;;;8264448;28;20433;-85
2022/09/08 02:15:10;;;;;;;13.63;8.40;;;;;;;;;;8263879;28;20042;-85
2022/09/08 02:19:17;;;;;;;15.95;8.13;;;;;;;;;;8264671;28;20117;-85
2022/09/08 02:23:20;;;;;;;11.55;4.70;;;;;;;;;;8270279;28;20053;-84
2022/09/08 02:27:22;;;;;;;11.00;4.30;;;;;;;;;;8270585;28;20049;-85
2022/09/08 02:31:27;;;;;;;11.32;5.18;;;;;;;;;;8270534;28;20406;-85
2022/09/08 02:35:31;;;;;;;10.55;4.50;;;;;;;;;;8269964;28;20483;-84
2022/09/08 02:39:33;;;;;;;10.63;4.97;;;;;;;;;;8269830;28;20050;-86
2022/09/08 02:43:36;;;;;;;11.10;4.72;;;;;;;;;;8269505;28;20070;-85
2022/09/08 02:47:39;;;;;;;8.02;4.38;;;;;;;;;;8269540;28;20461;-86
2022/09/08 02:51:43;;;;;;;8.02;4.35;;;;;;;;;;8269555;28;20406;-84
2022/09/08 02:55:45;;;;;;;9.90;4.15;;;;;;;;;;8269377;28;20103;-85
2022/09/08 02:59:48;;;;;;;11.00;4.22;;;;;;;;;;8269170;28;20046;-84
2022/09/08 03:03:50;;;;;;;10.63;4.30;;;;;;;;;;8269625;28;20046;-85
2022/09/08 03:07:54;;;;;;;7.93;3.45;;;;;;;;;;8268916;28;20042;-84
2022/09/08 03:11:57;;;;;;;8.18;4.25;;;;;;;;;;8268897;28;20049;-85
2022/09/08 03:15:59;;;;;;;9.15;4.60;;;;;;;;;;8268845;28;20057;-85
2022/09/08 03:20:02;;;;;;;9.48;4.35;;;;;;;;;;8269108;28;22023;-84
2022/09/08 03:24:06;;;;;;;11.88;4.93;;;;;;;;;;8268654;28;20133;-84
2022/09/08 03:28:15;;;;;;;10.68;4.20;;;;;;;;;;8268729;28;20478;-85
2022/09/08 03:32:18;;;;;;;9.68;4.85;;;;;;;;;;8267677;28;20510;-85
2022/09/08 03:36:21;;;;;;;13.32;3.83;;;;;;;;;;8268679;28;20379;-83
2022/09/08 03:40:25;;;;;;;11.75;5.35;;;;;;;;;;8268131;28;20054;-85
2022/09/08 03:44:28;;;;;;;10.85;5.05;;;;;;;;;;8267829;28;20101;-85
2022/09/08 03:48:32;;;;;;;10.02;5.18;;;;;;;;;;8267830;28;20049;-85
2022/09/08 03:52:34;;;;;;;9.75;4.85;;;;;;;;;;8268082;28;20062;-85
2022/09/08 03:56:38;;;;;;;9.63;4.72;;;;;;;;;;8267693;28;20054;-85
2022/09/08 04:00:42;;;;;;;6.38;3.53;;;;;;;;;;8267434;28;20060;-85
2022/09/08 04:04:48;;;;;;;9.95;4.43;;;;;;;;;;8267310;28;20049;-85
2022/09/08 04:08:50;;;;;;;9.50;5.20;;;;;;;;;;8267635;28;20585;-84
2022/09/08 04:12:54;;;;;;;11.27;5.05;;;;;;;;;;8267072;28;20050;-84
2022/09/08 04:16:57;;;;;;;11.38;5.10;;;;;;;;;;8267481;28;20050;-85
2022/09/08 04:21:00;;;;;;;12.75;5.43;;;;;;;;;;8266812;28;20105;-85
2022/09/08 04:25:03;;;;;;;15.60;5.28;;;;;;;;;;8266544;28;20063;-85
2022/09/08 04:29:07;;;;;;;10.95;5.30;;;;;;;;;;8266217;28;20109;-84
2022/09/08 04:33:10;;;;;;;10.23;5.15;;;;;;;;;;8266323;28;20046;-84
2022/09/08 04:37:13;;;;;;;7.55;4.45;;;;;;;;;;8266200;28;20486;-85
2022/09/08 04:41:17;;;;;;;10.95;4.28;;;;;;;;;;8266148;28;20418;-85
2022/09/08 04:45:21;;;;;;;9.18;4.40;;;;;;;;;;8264805;28;20569;-84
2022/09/08 04:49:23;;;;;;;9.00;4.15;;;;;;;;;;8266220;28;20434;-84
2022/09/08 04:53:26;;;;;;;10.57;5.88;;;;;;;;;;8234838;28;20058;-84
2022/09/08 04:57:29;;;;;;;9.35;5.10;;;;;;;;;;8248096;28;20042;-85
2022/09/08 05:01:40;;;;;;;16.42;6.43;;;;;;;;;;8265534;28;20335;-84
2022/09/08 05:05:50;;;;;;;10.48;5.35;;;;;;;;;;8265216;28;20125;-86
2022/09/08 05:10:01;;;;;;;14.27;4.97;;;;;;;;;;8251317;28;20466;-83
2022/09/08 05:14:14;;;;;;;8.52;4.57;;;;;;;;;;8253232;28;20206;-85
2022/09/08 05:18:22;;;;;;;13.90;4.70;;;;;;;;;;8264520;28;20099;-85
2022/09/08 05:22:25;;;;;;;18.75;7.07;;;;;;;;;;8234842;28;20098;-87
2022/09/08 05:26:28;;;;;;;14.30;6.70;;;;;;;;;;8264888;28;20096;-85
2022/09/08 05:30:31;;;;;;;13.93;5.63;;;;;;;;;;8264758;28;20050;-85
2022/09/08 05:34:35;;;;;;;11.57;4.43;;;;;;;;;;8265211;28;20482;-84
2022/09/08 05:38:38;;;;;;;14.45;6.22;;;;;;;;;;8264663;28;20101;-84
2022/09/08 05:42:40;;;;;;;12.48;6.00;;;;;;;;;;8262050;28;20100;-85
2022/09/08 05:46:43;;;;;;;12.07;5.07;;;;;;;;;;8264491;28;20069;-84
2022/09/08 05:50:47;;;;;;;15.38;5.03;;;;;;;;;;8264155;28;20042;-85
2022/09/08 05:54:50;;;;;;;7.80;4.43;;;;;;;;;;8263857;28;20453;-84
2022/09/08 05:58:53;;;;;;;16.13;7.50;;;;;;;;;;8264247;28;20046;-85
2022/09/08 06:02:56;;;;;;;19.55;7.40;;;;;;;;;;8263977;28;20046;-85
2022/09/08 06:07:00;;;;;;;17.27;4.90;;;;;;;;;;8256664;28;20151;-87
2022/09/08 06:11:03;;;;;;;18.83;5.75;;;;;;;;;;8249723;28;20054;-85
2022/09/08 06:15:07;;;;;;;18.75;5.88;;;;;;;;;;8260205;28;20648;-85
2022/09/08 06:19:11;;;;;;;20.77;11.73;;;;;;;;;;8262941;28;20046;-86
2022/09/08 06:23:15;;;;;;;19.83;7.03;;;;;;;;;;8263350;28;20478;-85
2022/09/08 06:27:26;;;;;;;15.45;7.03;;;;;;;;;;8263947;28;20050;-85
2022/09/08 06:31:31;;;;;;;8.70;4.43;;;;;;;;;;8263762;28;20046;-86
2022/09/08 06:35:41;;;;;;;11.27;6.05;;;;;;;;;;8263621;28;20050;-85
2022/09/08 06:39:49;;;;;;;17.83;7.45;;;;;;;;;;8263659;28;20072;-85
2022/09/08 06:43:56;;;;;;;16.73;6.68;;;;;;;;;;8263354;28;20058;-85
2022/09/08 06:48:24;;;;;;;10.30;5.22;;;;;;;;;;8263301;28;20042;-84
2022/09/08 06:52:32;;;;;;;12.15;6.38;;;;;;;;;;8263560;28;20132;-85
2022/09/08 06:56:47;;;;;;;28.50;15.35;;;;;;;;;;8263841;28;20066;-86
2022/09/08 07:01:04;;;;;;;20.17;6.13;;;;;;;;;;8263346;28;20053;-86
2022/09/08 07:05:15;;;;;;;12.57;6.53;;;;;;;;;;8263419;28;20053;-86
2022/09/08 07:09:28;;;;;;;11.82;5.68;;;;;;;;;;8268778;28;20430;-85
2022/09/08 07:13:37;;;;;;;9.13;5.05;;;;;;;;;;8268970;28;20038;-84
2022/09/08 07:17:46;;;;;;;9.07;4.97;;;;;;;;;;8268908;28;20054;-86
2022/09/08 07:21:53;;;;;;;15.40;9.15;;;;;;;;;;8268710;28;20073;-85
2022/09/08 07:26:01;;;;;;;10.55;5.05;;;;;;;;;;8269081;28;20054;-85
2022/09/08 07:30:07;;;;;;;9.77;5.53;;;;;;;;;;8268455;28;20046;-85
2022/09/08 07:34:18;;;;;;;13.68;6.65;;;;;;;;;;8268330;28;20042;-85
2022/09/08 07:38:26;;;;;;;;;;;;;;;;;;8268753;28;20458;-85
2022/09/08 07:42:29;;;;;;;12.85;4.88;;;;;;;;;;8267828;28;19929;-87
2022/09/08 07:46:54;;;;;;;9.77;5.35;;;;;;;;;;8268019;28;20054;-85
2022/09/08 07:51:09;;;;;;;9.02;4.72;;;;;;;;;;8267767;28;20488;-85
2022/09/08 07:55:21;;;;;;;10.35;5.10;;;;;;;;;;8267817;28;20053;-85
2022/09/08 07:59:33;;;;;;;8.77;4.75;;;;;;;;;;8267615;28;20046;-87
2022/09/08 08:03:46;;;;;;;11.20;5.18;;;;;;;;;;8267544;28;20042;-86
2022/09/08 08:07:59;;;;;;;9.07;4.95;;;;;;;;;;8267103;28;20054;-85
2022/09/08 08:12:10;;;;;;;8.93;4.78;;;;;;;;;;8267274;28;20045;-84
2022/09/08 08:16:16;;;;;;;7.57;4.13;;;;;;;;;;8267062;28;20227;-85
2022/09/08 08:20:34;;;;;;;9.95;5.00;;;;;;;;;;8268037;28;20052;-85
2022/09/08 08:24:45;;;;;;;9.82;4.78;;;;;;;;;;8266876;28;20158;-85
2022/09/08 08:28:47;;;;;;;9.98;4.88;;;;;;;;;;8266924;28;20053;-85
2022/09/08 08:32:57;;;;;;;13.70;5.28;;;;;;;;;;8267574;28;20042;-86
2022/09/08 08:37:04;;;;;;;11.70;4.80;;;;;;;;;;8266530;28;20414;-85
2022/09/08 08:41:14;;;;;;;10.68;4.68;;;;;;;;;;8266684;28;20482;-84
2022/09/08 08:45:25;;;;;;;13.63;5.50;;;;;;;;;;8266120;28;20057;-85
2022/09/08 08:50:03;;;;;;;12.30;5.15;;;;;;;;;;8265890;28;20054;-85
2022/09/08 08:54:37;;;;;;;13.25;5.10;;;;;;;;;;8266009;28;20406;-85
2022/09/08 08:59:04;;;;;;;10.20;4.90;;;;;;;;;;8265746;28;20502;-86
2022/09/08 09:03:46;;;;;;;12.50;5.22;;;;;;;;;;8265513;28;20093;-86
2022/09/08 09:08:19;;;;;;;9.48;4.80;;;;;;;;;;8265823;28;20482;-86
2022/09/08 09:12:49;;;;;;;9.90;4.53;;;;;;;;;;8262420;28;20046;-85
2022/09/08 09:17:25;;;;;;;8.43;4.90;;;;;;;;;;8261165;28;20046;-85
2022/09/08 09:21:42;;;;;;;11.63;5.32;;;;;;;;;;8250962;28;20094;-85
2022/09/08 09:25:57;;;;;;;7.45;4.65;;;;;;;;;;8243569;28;20043;-85
2022/09/08 09:30:19;;;;;;;8.60;4.72;;;;;;;;;;8246101;28;20586;-86
2022/09/08 09:34:49;;;;;;;6.95;3.83;;;;;;;;;;8243056;28;20057;-86
2022/09/08 09:39:46;;;;;;;6.95;4.20;;;;;;;;;;8263413;28;20097;-85
2022/09/08 09:44:07;;;;;;;10.43;4.57;;;;;;;;;;8194812;29;20566;-85
2022/09/08 09:48:50;;;;;;;11.23;5.10;;;;;;;;;;8196620;29;20404;-86
2022/09/08 09:52:59;;;;;;;7.50;4.32;;;;;;;;;;8169270;29;20503;-85
2022/09/08 09:57:40;;;;;;;8.68;4.88;;;;;;;;;;8186178;29;20115;-86
2022/09/08 10:01:57;;;;;;;13.52;4.72;;;;;;;;;;8119594;29;20059;-85
2022/09/08 10:06:23;;;;;;;12.23;5.65;;;;;;;;;;8180982;29;20131;-86
2022/09/08 10:10:54;;;;;;;10.18;5.93;;;;;;;;;;8185302;29;20112;-86
2022/09/08 10:15:25;;;;;;;8.13;4.47;;;;;;;;;;8221434;28;20055;-85
2022/09/08 10:19:53;;;;;;;8.50;4.60;;;;;;;;;;8235033;28;20792;-87
2022/09/08 10:24:15;;;;;;;21.63;12.80;;;;;;;;;;8231030;28;20057;-86
2022/09/08 10:29:00;;;;;;;13.23;5.00;;;;;;;;;;8230690;28;20046;-86
2022/09/08 10:33:26;;;;;;;7.68;4.00;;;;;;;;;;8241340;28;20051;-86
2022/09/08 10:38:19;;;;;;;9.05;4.95;;;;;;;;;;8243341;28;20043;-86
2022/09/08 10:42:48;;;;;;;9.13;4.72;;;;;;;;;;8205656;28;20065;-87
2022/09/08 10:47:22;;;;;;;10.63;4.57;;;;;;;;;;8192473;28;20617;-86
2022/09/08 10:51:52;;;;;;;16.67;4.63;;;;;;;;;;8207374;28;20443;-86
2022/09/08 10:56:16;;;;;;;10.23;4.43;;;;;;;;;;8212988;28;20052;-86
2022/09/08 11:00:22;;;;;;;15.57;6.53;;;;;;;;;;8204991;28;20063;-85
2022/09/08 11:05:03;;;;;;;11.23;5.35;;;;;;;;;;8196546;28;20079;-86
2022/09/08 11:09:32;;;;;;;9.10;4.85;;;;;;;;;;8197917;28;20142;-85
2022/09/08 11:13:37;;;;;;;12.45;5.35;;;;;;;;;;8238744;28;20108;-86
2022/09/08 11:17:47;;;;;;;9.38;4.68;;;;;;;;;;8259340;28;20384;-85
2022/09/08 11:22:06;;;;;;;13.70;5.32;;;;;;;;;;8236779;28;20050;-87
2022/09/08 11:26:26;;;;;;;17.45;6.10;;;;;;;;;;8265298;28;20081;-87
2022/09/08 11:30:36;;;;;;;16.63;5.57;;;;;;;;;;8268134;28;20043;-87
2022/09/08 11:35:01;;;;;;;12.68;5.18;;;;;;;;;;8268218;28;20057;-87
2022/09/08 11:39:19;;;;;;;10.25;4.20;;;;;;;;;;8267927;28;20050;-86
2022/09/08 11:43:40;;;;;;;8.35;4.10;;;;;;;;;;8267711;28;20065;-86
2022/09/08 11:48:16;;;;;;;7.80;4.38;;;;;;;;;;8267012;28;20046;-86
2022/09/08 11:52:34;;;;;;;8.27;4.30;;;;;;;;;;8267206;28;20039;-87
2022/09/08 11:57:00;;;;;;;10.10;5.30;;;;;;;;;;8254791;28;20042;-85
2022/09/08 12:01:23;;;;;;;12.18;5.78;;;;;;;;;;8264129;28;20109;-86
2022/09/08 12:05:33;;;;;;;9.63;4.60;;;;;;;;;;8256670;28;20054;-86
2022/09/08 12:10:18;;;;;;;8.48;4.55;;;;;;;;;;8268145;28;20051;-87
2022/09/08 12:14:29;;;;;;;10.23;4.65;;;;;;;;;;8231498;28;20391;-87
2022/09/08 12:18:49;;;;;;;7.32;4.60;;;;;;;;;;8266849;28;20056;-85
2022/09/08 12:23:05;;;;;;;8.85;4.15;;;;;;;;;;8253294;28;20073;-86
2022/09/08 12:27:22;;;;;;;6.93;4.35;;;;;;;;;;8257997;28;20042;-85
2022/09/08 12:31:39;;;;;;;10.02;4.30;;;;;;;;;;8266150;28;20105;-86
2022/09/08 12:35:50;;;;;;;10.65;4.15;;;;;;;;;;8266474;28;20542;-85
2022/09/08 12:40:11;;;;;;;;;;;;;;;;;;8266719;28;20070;-85
2022/09/08 12:44:26;;;;;;;11.25;4.93;;;;;;;;;;8265865;28;20458;-86
2022/09/08 12:48:38;;;;;;;9.38;4.07;;;;;;;;;;8265959;28;20050;-87
2022/09/08 12:53:03;;;;;;;8.55;4.95;;;;;;;;;;8266033;28;20797;-86
2022/09/08 12:57:20;;;;;;;13.20;6.32;;;;;;;;;;8263296;28;20142;-86
2022/09/08 13:01:30;;;;;;;12.23;5.10;;;;;;;;;;8265189;28;20038;-86
2022/09/08 13:05:48;;;;;;;10.88;6.70;;;;;;;;;;8264480;28;20057;-85
2022/09/08 13:10:07;;;;;;;8.43;4.43;;;;;;;;;;8264620;28;20050;-86
2022/09/08 13:14:12;;;;;;;9.32;5.07;;;;;;;;;;8265021;28;20046;-86
2022/09/08 13:18:28;;;;;;;10.77;4.60;;;;;;;;;;8265176;28;20072;-87
2022/09/08 13:22:40;;;;;;;11.77;4.88;;;;;;;;;;8265424;28;20053;-87
2022/09/08 13:26:59;;;;;;;9.25;4.63;;;;;;;;;;8254740;28;20049;-86
2022/09/08 13:31:14;;;;;;;6.07;4.22;;;;;;;;;;8254987;28;20054;-85
2022/09/08 13:35:30;;;;;;;14.38;5.38;;;;;;;;;;8265692;28;20042;-85
2022/09/08 13:40:06;;;;;;;9.77;4.70;;;;;;;;;;8240649;28;20046;-88
2022/09/08 13:44:40;;;;;;;9.45;4.72;;;;;;;;;;8250443;28;20129;-87
2022/09/08 13:49:18;;;;;;;10.15;4.85;;;;;;;;;;8263839;28;20050;-85
2022/09/08 13:53:53;;;;;;;9.43;5.03;;;;;;;;;;8263890;28;20796;-84
2022/09/08 13:58:18;;;;;;;7.53;3.83;;;;;;;;;;8240028;28;20069;-86
2022/09/08 14:02:30;;;;;;;10.38;5.32;;;;;;;;;;8242624;28;20051;-86
2022/09/08 14:06:43;;;;;;;7.45;4.72;;;;;;;;;;8233416;28;20054;-86
2022/09/08 14:11:06;;;;;;;9.40;4.78;;;;;;;;;;8241633;28;20042;-86
2022/09/08 14:15:20;;;;;;;12.70;4.88;;;;;;;;;;8258440;28;20061;-86
2022/09/08 14:19:40;;;;;;;10.35;5.32;;;;;;;;;;8269393;28;20165;-87
2022/09/08 14:24:14;;;;;;;8.68;4.85;;;;;;;;;;8270478;28;20096;-85
2022/09/08 14:28:18;;;;;;;9.85;5.47;;;;;;;;;;8236581;28;20073;-88
2022/09/08 14:32:53;;;;;;;14.40;5.80;;;;;;;;;;8270713;28;20053;-87
2022/09/08 14:37:03;;;;;;;10.05;5.18;;;;;;;;;;8270229;28;20053;-87
2022/09/08 14:41:09;;;;;;;11.98;5.22;;;;;;;;;;8267501;28;20141;-86
2022/09/08 14:45:22;;;;;;;11.82;5.30;;;;;;;;;;8260319;28;20058;-89
2022/09/08 14:50:09;;;;;;;11.23;4.97;;;;;;;;;;8255276;28;20475;-87
2022/09/08 14:54:21;;;;;;;10.50;5.45;;;;;;;;;;8194256;29;20046;-85
2022/09/08 14:58:55;;;;;;;11.23;5.72;;;;;;;;;;8208491;28;20058;-86
2022/09/08 15:03:01;;;;;;;11.40;6.32;;;;;;;;;;8244867;28;20058;-85
2022/09/08 15:07:14;;;;;;;10.18;5.57;;;;;;;;;;8251058;28;20050;-85
2022/09/08 15:11:26;;;;;;;12.05;5.88;;;;;;;;;;8263695;28;20082;-86
2022/09/08 15:15:36;;;;;;;10.73;6.00;;;;;;;;;;8250581;28;20133;-86
2022/09/08 15:19:47;;;;;;;8.32;5.55;;;;;;;;;;8263985;28;20081;-86
2022/09/08 15:23:55;;;;;;;11.77;5.53;;;;;;;;;;8247161;28;20138;-85
2022/09/08 15:28:06;;;;;;;12.50;6.50;;;;;;;;;;8239522;28;20092;-86
2022/09/08 15:32:41;;;;;;;11.32;6.72;;;;;;;;;;8248303;28;20069;-86
2022/09/08 15:36:58;;;;;;;12.50;7.60;;;;;;;;;;8223293;28;20050;-84
2022/09/08 15:41:29;;;;;;;27.13;18.75;;;;;;;;;;8251667;28;20522;-85
2022/09/08 15:45:58;;;;;;;30.95;24.95;;;;;;;;;;8258457;28;20080;-85
2022/09/08 15:50:25;;;;;;;21.02;18.17;;;;;;;;;;8241591;28;20049;-84
2022/09/08 15:54:44;;;;;;;14.02;9.02;;;;;;;;;;8246018;28;20537;-83
2022/09/08 15:59:25;;;;;;;12.98;7.72;;;;;;;;;;8234036;28;20450;-85
2022/09/08 16:03:43;;;;;;;19.60;8.07;;;;;;;;;;8232125;28;20051;-84
2022/09/08 16:08:00;;;;;;;22.88;10.65;;;;;;;;;;8236304;28;20502;-83
2022/09/08 16:12:09;;;;;;;9.52;5.72;;;;;;;;;;8252317;28;20515;-85
2022/09/08 16:17:00;;;;;;;20.77;9.20;;;;;;;;;;8250369;28;20046;-84
2022/09/08 16:21:22;;;;;;;16.23;7.82;;;;;;;;;;8236118;28;20054;-85
2022/09/08 16:25:37;;;;;;;11.52;6.15;;;;;;;;;;8246098;28;20059;-86
2022/09/08 16:29:57;;;;;;;;;;;;;;;;;;8232775;28;20049;-85
2022/09/08 16:34:35;;;;;;;11.80;5.78;;;;;;;;;;8229576;28;19960;-84
2022/09/08 16:38:46;;;;;;;18.08;8.63;;;;;;;;;;8232954;28;20090;-87
2022/09/08 16:42:59;;;;;;;11.32;5.95;;;;;;;;;;8232775;28;20059;-86
2022/09/08 16:52:43;;;;;;;22.50;7.45;;;;;;;;;;8223753;28;20082;-87
2022/09/08 16:56:55;;;;;;;12.75;6.38;;;;;;;;;;8244356;28;20498;-86
2022/09/08 17:01:13;;;;;;;13.93;6.28;;;;;;;;;;8250840;28;20466;-87
2022/09/08 17:05:52;;;;;;;13.23;6.63;;;;;;;;;;8248160;28;20046;-86
2022/09/08 17:10:14;;;;;;;9.48;5.68;;;;;;;;;;8220773;28;20464;-87
2022/09/08 17:14:21;;;;;;;17.48;6.47;;;;;;;;;;8237135;28;20050;-87
2022/09/08 17:18:58;;;;;;;12.02;6.40;;;;;;;;;;8243427;28;20056;-86
2022/09/08 17:23:36;;;;;;;10.70;5.90;;;;;;;;;;8249020;28;20072;-86
2022/09/08 17:28:10;;;;;;;12.40;5.90;;;;;;;;;;8247686;28;20038;-85
2022/09/08 17:32:48;;;;;;;11.45;6.13;;;;;;;;;;8261525;28;20038;-84
2022/09/08 17:37:15;;;;;;;16.83;7.05;;;;;;;;;;8264068;28;20050;-86
2022/09/08 17:41:43;;;;;;;12.90;6.28;;;;;;;;;;8264573;28;20124;-84
2022/09/08 17:46:05;;;;;;;11.65;5.60;;;;;;;;;;8258320;28;20050;-85
2022/09/08 17:50:27;;;;;;;12.18;6.20;;;;;;;;;;8263854;28;20042;-84
2022/09/08 17:54:45;;;;;;;14.57;6.50;;;;;;;;;;8256652;28;20043;-87
2022/09/08 17:58:48;;;;;;;10.63;5.90;;;;;;;;;;8258345;28;20045;-86
2022/09/08 18:03:30;;;;;;;10.13;5.40;;;;;;;;;;8263430;28;20054;-86
2022/09/08 18:07:40;;;;;;;12.65;6.35;;;;;;;;;;8253222;28;20050;-85
2022/09/08 18:11:58;;;;;;;12.95;6.55;;;;;;;;;;8254662;28;20050;-86
2022/09/08 18:16:23;;;;;;;9.45;5.75;;;;;;;;;;8238630;28;20491;-86
2022/09/08 18:20:44;;;;;;;10.57;5.97;;;;;;;;;;8251811;28;20050;-85
2022/09/08 18:25:07;;;;;;;10.65;4.80;;;;;;;;;;8264103;28;20054;-86
2022/09/08 18:29:26;;;;;;;5.60;3.70;;;;;;;;;;8263513;28;20054;-86
2022/09/08 18:34:05;;;;;;;15.23;6.15;;;;;;;;;;8250114;28;20046;-85
2022/09/08 18:38:24;;;;;;;10.40;5.85;;;;;;;;;;8261392;28;20101;-86
2022/09/08 18:42:57;;;;;;;10.80;6.07;;;;;;;;;;8232173;28;20063;-86
2022/09/08 18:47:41;;;;;;;12.55;5.90;;;;;;;;;;8252068;28;20554;-88
2022/09/08 18:52:11;;;;;;;14.77;6.82;;;;;;;;;;8246993;28;20569;-86
2022/09/08 18:56:34;;;;;;;13.23;6.72;;;;;;;;;;8250085;28;20068;-86
2022/09/08 19:01:28;;;;;;;14.15;7.35;;;;;;;;;;8261615;28;20410;-85
2022/09/08 19:05:34;;;;;;;14.10;7.25;;;;;;;;;;8244800;28;20043;-87
2022/09/08 19:09:52;;;;;;;13.23;8.25;;;;;;;;;;8252995;28;20089;-86
2022/09/08 19:14:18;;;;;;;13.20;8.93;;;;;;;;;;8253988;28;20458;-85
2022/09/08 19:18:27;;;;;;;20.95;9.85;;;;;;;;;;8268039;28;20050;-86
2022/09/08 19:22:30;;;;;;;22.00;11.80;;;;;;;;;;8268990;28;20051;-86
2022/09/08 19:26:46;;;;;;;17.17;11.10;;;;;;;;;;8268653;28;20085;-86
2022/09/08 19:31:02;;;;;;;23.15;11.80;;;;;;;;;;8268710;28;20467;-85
2022/09/08 19:35:16;;;;;;;22.40;12.10;;;;;;;;;;8269022;28;20380;-84
2022/09/08 19:39:30;;;;;;;23.60;11.90;;;;;;;;;;8268724;28;20566;-86
2022/09/08 19:43:50;;;;;;;22.55;12.20;;;;;;;;;;8267988;28;20066;-86
2022/09/08 19:48:14;;;;;;;18.20;11.48;;;;;;;;;;8268456;28;20599;-86
2022/09/08 19:52:28;;;;;;;22.85;13.70;;;;;;;;;;8267960;28;20112;-86
2022/09/08 19:56:40;;;;;;;20.33;13.15;;;;;;;;;;8267970;28;20489;-86
2022/09/08 20:00:46;;;;;;;19.50;13.07;;;;;;;;;;8267817;28;20484;-85
2022/09/08 20:05:03;;;;;;;17.73;12.25;;;;;;;;;;8267499;28;20414;-86
2022/09/08 20:09:18;;;;;;;18.45;12.02;;;;;;;;;;8267551;28;20129;-86
2022/09/08 20:13:26;;;;;;;18.58;13.07;;;;;;;;;;8266727;28;20050;-86
2022/09/08 20:17:43;;;;;;;21.20;11.73;;;;;;;;;;8267230;28;20057;-87
2022/09/08 20:21:52;;;;;;;18.40;11.45;;;;;;;;;;8267023;28;20561;-85
2022/09/08 20:26:05;;;;;;;23.80;12.32;;;;;;;;;;8267372;28;20474;-86
2022/09/08 20:30:14;;;;;;;19.92;12.40;;;;;;;;;;8267270;28;20530;-86
2022/09/08 20:34:47;;;;;;;22.23;11.80;;;;;;;;;;8266546;28;20050;-86
2022/09/08 20:39:20;;;;;;;14.65;10.25;;;;;;;;;;8267075;28;20047;-85
2022/09/08 20:43:30;;;;;;;18.52;11.20;;;;;;;;;;8266582;28;20050;-86
2022/09/08 20:47:38;;;;;;;18.05;10.93;;;;;;;;;;8266438;28;20541;-85
2022/09/08 20:52:12;;;;;;;18.73;10.73;;;;;;;;;;8266036;28;20111;-86
2022/09/08 20:56:21;;;;;;;17.92;11.88;;;;;;;;;;8266310;28;20423;-85
2022/09/08 21:00:25;;;;;;;15.85;9.63;;;;;;;;;;8265983;28;20058;-87
2022/09/08 21:04:35;;;;;;;16.13;9.63;;;;;;;;;;8264488;28;20487;-85
2022/09/08 21:08:37;;;;;;;17.73;9.32;;;;;;;;;;8265590;28;20149;-86
2022/09/08 21:12:58;;;;;;;17.35;9.23;;;;;;;;;;8265518;28;20046;-87
2022/09/08 21:17:06;;;;;;;16.60;9.00;;;;;;;;;;8265336;28;20125;-87
2022/09/08 21:21:33;;;;;;;16.48;9.25;;;;;;;;;;8265303;28;20050;-84
2022/09/08 21:25:38;;;;;;;13.93;7.82;;;;;;;;;;8264252;28;20121;-85
2022/09/08 21:29:52;;;;;;;13.80;7.90;;;;;;;;;;8264153;28;20128;-85
2022/09/08 21:34:05;;;;;;;17.73;9.32;;;;;;;;;;8264936;28;20161;-85
2022/09/08 21:38:22;;;;;;;15.30;9.55;;;;;;;;;;8264904;28;20050;-85
2022/09/08 21:42:31;;;;;;;13.88;9.13;;;;;;;;;;8264487;28;20066;-86
2022/09/08 21:46:45;;;;;;;21.40;10.25;;;;;;;;;;8264625;28;20057;-85
2022/09/08 21:50:53;;;;;;;15.32;10.45;;;;;;;;;;8264905;28;20046;-85
2022/09/08 21:54:59;;;;;;;19.73;11.68;;;;;;;;;;8264475;28;20069;-85
2022/09/08 21:59:13;;;;;;;16.23;10.32;;;;;;;;;;8264369;28;20397;-85
2022/09/08 22:03:27;;;;;;;18.55;9.85;;;;;;;;;;8264669;28;20411;-86
2022/09/08 22:07:31;;;;;;;18.80;10.48;;;;;;;;;;8264219;28;20057;-85
2022/09/08 22:11:39;;;;;;;18.98;13.10;;;;;;;;;;8264128;28;20498;-86
2022/09/08 22:15:43;;;;;;;19.80;12.98;;;;;;;;;;8264528;28;20055;-85
2022/09/08 22:19:52;;;;;;;26.40;14.27;;;;;;;;;;8263929;28;20053;-85
2022/09/08 22:24:00;;;;;;;11.85;7.30;;;;;;;;;;8264032;28;20062;-85
2022/09/08 22:28:12;;;;;;;18.27;10.65;;;;;;;;;;8263941;28;20042;-85
2022/09/08 22:32:23;;;;;;;17.77;11.45;;;;;;;;;;8263796;28;20070;-86
2022/09/08 22:36:32;;;;;;;19.73;11.82;;;;;;;;;;8264932;28;20054;-86
2022/09/08 22:40:48;;;;;;;19.58;12.07;;;;;;;;;;8270268;28;20050;-85
2022/09/08 22:44:55;;;;;;;19.92;11.45;;;;;;;;;;8269926;28;20050;-85
2022/09/08 22:49:04;;;;;;;21.50;12.32;;;;;;;;;;8269998;28;20483;-86
2022/09/08 22:53:21;;;;;;;6.22;3.55;;;;;;;;;;8266286;28;20073;-85
2022/09/08 22:57:28;;;;;;;23.95;13.10;;;;;;;;;;8257809;28;20475;-85
2022/09/08 23:01:36;;;;;;;18.33;10.98;;;;;;;;;;8260522;28;20047;-86
2022/09/08 23:05:53;;;;;;;21.17;13.05;;;;;;;;;;8267911;28;20049;-85
2022/09/08 23:10:17;;;;;;;22.92;12.63;;;;;;;;;;8250749;28;20057;-86
2022/09/08 23:14:39;;;;;;;16.42;10.45;;;;;;;;;;8256971;28;20043;-87
2022/09/08 23:19:00;;;;;;;23.98;13.10;;;;;;;;;;8268928;28;20137;-85
2022/09/08 23:23:32;;;;;;;22.70;13.50;;;;;;;;;;8267646;28;20054;-86
2022/09/08 23:27:59;;;;;;;20.00;11.55;;;;;;;;;;8268527;28;20066;-86
2022/09/08 23:32:20;;;;;;;20.30;11.77;;;;;;;;;;8267841;28;20426;-87
2022/09/08 23:36:50;;;;;;;24.02;14.25;;;;;;;;;;8268271;28;20038;-87
2022/09/08 23:41:07;;;;;;;20.85;13.07;;;;;;;;;;8268075;28;20109;-87
2022/09/08 23:45:28;;;;;;;17.13;11.95;;;;;;;;;;8267820;28;20082;-86
2022/09/08 23:49:42;;;;;;;20.60;12.43;;;;;;;;;;8266125;28;20057;-86
2022/09/08 23:53:53;;;;;;;19.00;13.15;;;;;;;;;;8267778;28;20483;-86
2022/09/08 23:57:58;;;;;;;20.05;12.05;;;;;;;;;;8267468;28;20043;-85
